Terminal Aerodrome Forecast
Issued by NWS Upton, NY

Home | Current Version | Previous Version | Text Only | Print | Product List | Glossary On
Versions: 1 2 3 4 5 6 7 8 9 10 11 12 13 14 15 16 17 18 19 20 21 22 23 24 25 26 27 28 29
000
FTUS41 KOKX 311950 AAB
TAFJFK
TAF AMD
KJFK 311950Z 3120/0124 20012KT P6SM FEW060
     FM010100 25008KT P6SM FEW060
     FM011500 23012G18KT P6SM SCT060
     FM012000 26014G20KT P6SM SCT060
     FM012300 27012KT P6SM SCT060=

USA.gov is the U.S. government's official web portal to all federal, state and local government web resources and services.